Time;durP1;ratioP1;P1;durP2;ratioP2;P2;SDS_P1;SDS_P2;PMS_P1;PMS_P2;Temp;Humidity;BMP_temperature;BMP_pressure;BME280_temperature;BME280_humidity;BME280_pressure;Samples;Min_cycle;Max_cycle;Signal;HPM_P1;HPM_P2
2022/07/03 00:00:56;;;;;;;27.48;10.02;;;22.90;64.60;;;;;;5045796;28;20056;-26
2022/07/03 00:03:22;;;;;;;20.30;9.02;;;22.90;64.30;;;;;;5037318;28;20036;-28
2022/07/03 00:05:47;;;;;;;22.83;9.52;;;22.90;64.30;;;;;;5038471;28;20048;-27
2022/07/03 00:08:13;;;;;;;21.95;8.73;;;22.90;64.20;;;;;;5057899;28;20040;-25
2022/07/03 00:10:39;;;;;;;20.50;8.45;;;22.80;64.30;;;;;;5052149;28;20048;-24
2022/07/03 00:13:05;;;;;;;22.58;8.48;;;22.80;64.40;;;;;;5053935;28;20040;-24
2022/07/03 00:15:30;;;;;;;16.88;8.43;;;22.80;64.40;;;;;;5051901;28;20402;-25
2022/07/03 00:17:56;;;;;;;19.05;8.43;;;22.80;64.50;;;;;;5045489;28;20135;-21
2022/07/03 00:20:22;;;;;;;26.98;8.77;;;22.80;64.70;;;;;;5053796;28;20041;-23
2022/07/03 00:22:48;;;;;;;21.63;8.57;;;22.80;64.80;;;;;;5057942;28;20378;-24
2022/07/03 00:25:13;;;;;;;18.65;9.00;;;22.80;64.70;;;;;;5058030;28;20048;-23
2022/07/03 00:27:39;;;;;;;17.70;7.85;;;22.80;64.70;;;;;;5044242;28;20143;-24
2022/07/03 00:30:07;;;;;;;16.52;7.85;;;22.80;64.70;;;;;;5043868;28;20194;-23
2022/07/03 00:32:33;;;;;;;16.00;7.90;;;22.70;64.70;;;;;;5057641;28;20110;-27
2022/07/03 00:34:58;;;;;;;20.15;8.43;;;22.80;64.80;;;;;;5035252;28;20049;-25
2022/07/03 00:37:24;;;;;;;20.30;8.73;;;22.80;64.90;;;;;;5040655;28;20056;-23
2022/07/03 00:39:50;;;;;;;20.55;7.93;;;22.70;64.70;;;;;;5038306;28;20462;-23
2022/07/03 00:42:15;;;;;;;17.85;7.25;;;22.70;64.70;;;;;;5063691;28;20036;-23
2022/07/03 00:44:51;;;;;;;17.17;7.57;;;22.70;64.70;;;;;;5053333;28;20132;-25
2022/07/03 00:47:18;;;;;;;12.77;6.82;;;22.70;64.60;;;;;;5038848;28;20087;-23
2022/07/03 00:49:48;;;;;;;16.63;7.18;;;22.70;64.60;;;;;;5036122;28;20062;-26
2022/07/03 00:52:14;;;;;;;16.00;7.55;;;22.70;65.00;;;;;;5038349;28;20492;-27
2022/07/03 00:54:46;;;;;;;11.75;6.57;;;22.70;65.60;;;;;;5042682;28;20158;-24
2022/07/03 00:57:16;;;;;;;14.45;6.10;;;22.70;64.60;;;;;;5040576;28;20180;-23
2022/07/03 00:59:42;;;;;;;15.43;7.07;;;22.70;64.50;;;;;;5056818;28;20045;-26
2022/07/03 01:02:08;;;;;;;18.10;7.22;;;22.70;64.60;;;;;;5065982;28;20040;-26
2022/07/03 01:05:27;;;;;;;17.60;6.97;;;22.70;64.80;;;;;;5054022;28;20357;-23
2022/07/03 01:08:11;;;;;;;17.58;6.93;;;22.90;64.60;;;;;;5057122;28;20055;-24
2022/07/03 01:11:01;;;;;;;13.80;6.25;;;22.80;64.40;;;;;;5065829;28;20040;-28
2022/07/03 01:13:35;;;;;;;13.85;6.22;;;22.80;64.40;;;;;;5042554;28;20562;-24
2022/07/03 01:16:10;;;;;;;13.02;6.00;;;22.80;64.40;;;;;;5036684;28;20040;-24
2022/07/03 01:18:48;;;;;;;14.15;5.75;;;22.80;64.20;;;;;;5042826;28;20041;-23
2022/07/03 01:21:34;;;;;;;16.00;6.97;;;23.00;64.70;;;;;;5054841;28;20044;-24
2022/07/03 01:24:14;;;;;;;16.52;5.75;;;23.00;65.20;;;;;;5061740;28;20133;-21
2022/07/03 01:26:40;;;;;;;21.63;5.82;;;23.10;64.40;;;;;;5043560;28;20076;-27
2022/07/03 01:29:13;;;;;;;13.13;6.20;;;23.00;64.50;;;;;;5058203;28;20040;-22
2022/07/03 01:31:39;;;;;;;14.25;6.43;;;23.10;65.90;;;;;;5054089;28;20477;-26
2022/07/03 01:34:08;;;;;;;14.52;5.40;;;23.10;64.60;;;;;;5033561;28;20128;-21
2022/07/03 01:36:33;;;;;;;15.50;6.68;;;23.10;64.50;;;;;;5072016;28;20049;-23
2022/07/03 01:38:59;;;;;;;14.55;5.20;;;23.10;64.40;;;;;;5045539;28;20080;-26
2022/07/03 01:41:25;;;;;;;14.63;6.00;;;23.10;65.00;;;;;;5064122;28;20049;-21
2022/07/03 01:43:57;;;;;;;16.35;5.53;;;23.10;64.30;;;;;;5059507;28;20073;-27
2022/07/03 01:46:30;;;;;;;14.45;5.45;;;23.20;64.80;;;;;;5047827;28;20755;-22
2022/07/03 01:48:56;;;;;;;15.43;5.22;;;23.10;65.60;;;;;;5048665;28;20036;-23
2022/07/03 01:51:23;;;;;;;11.82;4.95;;;23.20;64.80;;;;;;5073977;28;20053;-24
2022/07/03 01:53:49;;;;;;;9.20;4.85;;;23.20;64.60;;;;;;5054817;28;20045;-22
2022/07/03 01:56:15;;;;;;;14.90;5.22;;;23.20;64.60;;;;;;5036210;28;20049;-23
2022/07/03 01:58:41;;;;;;;23.00;5.75;;;23.20;64.50;;;;;;5057267;28;20048;-25
2022/07/03 02:01:27;;;;;;;23.60;5.82;;;23.20;65.00;;;;;;5050275;28;20048;-23
2022/07/03 02:04:03;;;;;;;12.25;4.97;;;23.20;65.30;;;;;;5054160;28;20079;-23
2022/07/03 02:06:44;;;;;;;15.20;4.88;;;23.30;66.70;;;;;;5060976;28;20124;-27
2022/07/03 02:09:11;;;;;;;12.88;4.70;;;23.30;65.90;;;;;;5038960;28;20044;-23
2022/07/03 02:11:44;;;;;;;13.15;5.15;;;23.20;65.30;;;;;;5062405;28;20124;-23
2022/07/03 02:14:14;;;;;;;11.80;4.93;;;23.20;66.00;;;;;;4354977;28;10000778;-24
2022/07/03 02:16:56;;;;;;;9.95;4.68;;;23.20;66.10;;;;;;5055795;28;20049;-23
2022/07/03 02:19:38;;;;;;;10.20;4.25;;;23.30;65.50;;;;;;5056592;28;20055;-21
2022/07/03 02:22:05;;;;;;;13.85;4.18;;;23.20;65.60;;;;;;4692431;28;10000588;-24
2022/07/03 02:24:30;;;;;;;10.70;4.10;;;23.20;65.30;;;;;;5033292;28;20040;-26
2022/07/03 02:27:04;;;;;;;13.90;5.30;;;23.20;65.60;;;;;;5040386;28;20045;-23
2022/07/03 02:29:46;;;;;;;11.13;4.63;;;23.20;65.10;;;;;;5090745;28;20063;-27
2022/07/03 02:32:14;;;;;;;10.73;4.30;;;23.20;65.80;;;;;;5064590;28;20039;-24
2022/07/03 02:34:45;;;;;;;11.55;4.50;;;23.20;65.20;;;;;;5061733;28;20075;-21
2022/07/03 02:37:14;;;;;;;9.00;3.85;;;23.30;65.80;;;;;;5057550;28;20055;-23
2022/07/03 02:39:51;;;;;;;12.85;3.45;;;23.20;66.90;;;;;;5054746;28;20065;-24
2022/07/03 02:42:23;;;;;;;10.35;4.20;;;23.10;66.30;;;;;;5052482;28;20095;-26
2022/07/03 02:44:51;;;;;;;10.13;3.45;;;23.00;66.10;;;;;;5056341;28;20053;-23
2022/07/03 02:47:43;;;;;;;10.27;2.90;;;23.10;65.40;;;;;;5062505;28;20382;-22
2022/07/03 02:50:11;;;;;;;5.90;2.50;;;23.00;64.60;;;;;;5049528;28;20033;-22
2022/07/03 02:52:40;;;;;;;14.63;3.47;;;23.00;63.60;;;;;;5052573;28;20509;-23
2022/07/03 02:55:24;;;;;;;8.63;2.50;;;22.90;64.00;;;;;;5051970;28;20040;-26
2022/07/03 02:58:06;;;;;;;5.72;2.67;;;23.00;63.60;;;;;;5065594;28;20382;-24
2022/07/03 03:00:34;;;;;;;5.72;2.85;;;22.90;64.20;;;;;;5052528;28;20052;-23
2022/07/03 03:03:01;;;;;;;5.47;2.20;;;22.90;64.20;;;;;;5054658;28;20040;-23
2022/07/03 03:05:34;;;;;;;2.72;2.30;;;22.90;64.20;;;;;;5027503;28;20044;-32
2022/07/03 03:08:06;;;;;;;7.20;2.22;;;22.80;63.90;;;;;;5056930;28;20045;-24
2022/07/03 03:10:37;;;;;;;6.88;2.60;;;22.90;63.80;;;;;;5063911;28;20097;-22
2022/07/03 03:13:11;;;;;;;8.15;3.30;;;22.90;64.40;;;;;;5063297;28;20165;-26
2022/07/03 03:15:37;;;;;;;8.70;2.40;;;23.00;64.40;;;;;;5051983;28;20041;-26
2022/07/03 03:18:07;;;;;;;3.75;2.33;;;23.00;64.20;;;;;;5062033;28;20036;-24
2022/07/03 03:20:37;;;;;;;8.90;2.10;;;23.00;64.10;;;;;;5061451;28;20047;-22
2022/07/03 03:23:24;;;;;;;9.02;3.08;;;22.90;64.20;;;;;;5058529;28;20044;-22
2022/07/03 03:25:51;;;;;;;5.43;2.30;;;22.90;64.20;;;;;;5053592;28;20052;-23
2022/07/03 03:28:17;;;;;;;4.78;2.35;;;22.90;64.70;;;;;;5040039;28;20068;-22
2022/07/03 03:30:42;;;;;;;4.03;2.30;;;22.90;64.00;;;;;;5054478;28;20049;-24
2022/07/03 03:33:08;;;;;;;2.70;2.38;;;22.90;63.90;;;;;;5052249;28;20080;-26
2022/07/03 03:35:35;;;;;;;4.38;1.92;;;22.80;63.60;;;;;;5055217;28;20041;-22
2022/07/03 03:38:00;;;;;;;5.72;1.83;;;22.80;63.50;;;;;;5056478;28;20047;-22
2022/07/03 03:40:26;;;;;;;6.15;1.90;;;22.80;63.70;;;;;;5046481;28;20045;-23
2022/07/03 03:42:52;;;;;;;3.28;2.15;;;22.80;63.30;;;;;;5058279;28;20124;-23
2022/07/03 03:45:17;;;;;;;2.38;1.77;;;22.80;63.60;;;;;;5047177;28;20155;-23
2022/07/03 03:47:43;;;;;;;4.90;1.75;;;22.80;63.60;;;;;;5040195;28;20129;-23
2022/07/03 03:50:09;;;;;;;2.67;1.70;;;22.80;63.60;;;;;;5037594;28;20045;-23
2022/07/03 03:52:34;;;;;;;2.78;1.63;;;22.80;63.70;;;;;;5055409;28;20052;-22
2022/07/03 03:55:00;;;;;;;2.25;1.98;;;22.80;63.50;;;;;;5061590;28;20052;-24
2022/07/03 03:57:25;;;;;;;3.65;1.67;;;22.80;63.60;;;;;;5063116;28;20127;-23
2022/07/03 03:59:51;;;;;;;2.22;1.67;;;22.80;63.40;;;;;;5060340;28;20048;-23
2022/07/03 04:02:17;;;;;;;4.47;2.10;;;22.80;63.60;;;;;;5056501;28;20051;-23
2022/07/03 04:04:43;;;;;;;3.65;1.70;;;22.80;63.50;;;;;;5054378;28;20040;-25
2022/07/03 04:07:08;;;;;;;3.50;1.58;;;22.80;63.50;;;;;;5054560;28;20041;-24
2022/07/03 04:09:34;;;;;;;3.30;1.65;;;22.70;63.20;;;;;;5042976;28;20075;-23
2022/07/03 04:12:00;;;;;;;3.65;1.90;;;22.70;63.40;;;;;;5053018;28;20049;-22
2022/07/03 04:14:25;;;;;;;3.33;1.85;;;22.70;63.40;;;;;;5056026;28;20048;-25
2022/07/03 04:16:51;;;;;;;2.13;1.67;;;22.70;64.20;;;;;;5051582;28;20048;-21
2022/07/03 04:19:16;;;;;;;3.88;1.60;;;22.70;63.10;;;;;;5056536;28;20447;-22
2022/07/03 04:21:42;;;;;;;5.82;1.90;;;22.70;63.30;;;;;;5046769;28;20382;-22
2022/07/03 04:24:08;;;;;;;1.85;1.33;;;22.70;63.20;;;;;;5051665;28;20110;-27
2022/07/03 04:26:33;;;;;;;3.38;1.67;;;22.70;63.20;;;;;;5057918;28;20040;-23
2022/07/03 04:28:59;;;;;;;2.50;1.42;;;22.70;62.90;;;;;;5048025;28;20071;-22
2022/07/03 04:31:24;;;;;;;3.38;1.70;;;22.70;63.00;;;;;;5061453;28;20059;-24
2022/07/03 04:33:50;;;;;;;3.08;1.65;;;22.70;63.10;;;;;;5050597;28;20053;-24
2022/07/03 04:36:16;;;;;;;1.60;1.38;;;22.70;63.30;;;;;;5060586;28;20048;-25
2022/07/03 04:38:42;;;;;;;2.05;1.33;;;22.70;63.00;;;;;;5055661;28;20109;-22
2022/07/03 04:41:08;;;;;;;2.38;1.42;;;22.60;63.70;;;;;;5061238;28;20048;-28
2022/07/03 04:43:33;;;;;;;1.50;1.20;;;22.60;62.80;;;;;;5061633;28;20475;-24
2022/07/03 04:45:59;;;;;;;2.20;1.55;;;22.60;62.90;;;;;;5061907;28;20062;-23
2022/07/03 04:48:24;;;;;;;2.03;1.70;;;22.60;63.00;;;;;;5064663;28;20040;-24
2022/07/03 04:50:50;;;;;;;1.70;1.52;;;22.60;62.90;;;;;;5062025;28;20047;-25
2022/07/03 04:53:16;;;;;;;1.58;1.42;;;22.60;62.90;;;;;;5065595;28;20139;-21
2022/07/03 04:55:41;;;;;;;2.10;1.60;;;22.60;62.80;;;;;;5061963;28;20520;-24
2022/07/03 04:58:07;;;;;;;1.58;1.17;;;22.60;62.70;;;;;;5050233;28;20048;-24
2022/07/03 05:00:32;;;;;;;1.92;1.30;;;22.60;62.70;;;;;;5056552;28;20049;-25
2022/07/03 05:03:00;;;;;;;1.42;1.20;;;22.60;62.90;;;;;;5051100;28;20055;-23
2022/07/03 05:05:25;;;;;;;2.78;1.38;;;22.60;62.70;;;;;;5059843;28;20036;-29
2022/07/03 05:07:51;;;;;;;1.65;1.20;;;22.50;62.80;;;;;;5056588;28;20040;-22
2022/07/03 05:10:16;;;;;;;2.47;1.10;;;22.50;62.80;;;;;;5052300;28;20052;-23
2022/07/03 05:12:42;;;;;;;1.55;1.10;;;22.50;62.70;;;;;;5050092;28;20076;-23
2022/07/03 05:15:08;;;;;;;2.70;1.17;;;22.50;62.50;;;;;;5063664;28;20044;-23
2022/07/03 05:17:34;;;;;;;1.30;0.88;;;22.50;62.50;;;;;;5051534;28;20055;-22
2022/07/03 05:22:44;;;;;;;2.17;1.25;;;22.50;62.80;;;;;;5047551;28;20520;-20
2022/07/03 05:25:10;;;;;;;2.85;1.30;;;22.50;62.60;;;;;;5049812;28;20045;-23
2022/07/03 05:27:37;;;;;;;1.83;1.00;;;22.50;62.80;;;;;;5046084;28;20562;-26
2022/07/03 05:30:02;;;;;;;1.25;1.00;;;22.50;62.60;;;;;;5045084;28;20094;-23
2022/07/03 05:32:28;;;;;;;3.55;1.10;;;22.50;62.50;;;;;;5046009;28;20124;-23
2022/07/03 05:34:54;;;;;;;2.08;1.00;;;22.50;62.60;;;;;;5062463;28;20044;-23
2022/07/03 05:37:19;;;;;;;2.13;1.10;;;22.50;62.60;;;;;;5055352;28;20036;-21
2022/07/03 05:39:45;;;;;;;2.50;1.25;;;22.50;62.60;;;;;;5059474;28;20037;-22
2022/07/03 05:42:10;;;;;;;1.00;0.90;;;22.50;62.60;;;;;;5065981;28;20649;-22
2022/07/03 05:44:36;;;;;;;3.17;1.00;;;22.50;62.10;;;;;;5066024;28;20452;-27
2022/07/03 05:47:01;;;;;;;1.20;0.93;;;22.50;62.50;;;;;;5066345;28;20052;-26
2022/07/03 05:49:27;;;;;;;1.30;1.20;;;22.50;62.50;;;;;;5066135;28;20043;-24
2022/07/03 05:51:53;;;;;;;1.08;0.85;;;22.50;62.50;;;;;;5062713;28;20040;-22
2022/07/03 05:54:18;;;;;;;1.45;1.15;;;22.50;62.50;;;;;;5056223;28;20044;-24
2022/07/03 05:56:44;;;;;;;3.10;1.05;;;22.50;62.60;;;;;;5057532;28;20051;-21
2022/07/03 05:59:09;;;;;;;0.90;0.70;;;22.50;62.30;;;;;;5061182;28;20056;-26
2022/07/03 06:01:35;;;;;;;1.70;1.10;;;22.50;62.50;;;;;;5054856;28;20041;-26
2022/07/03 06:04:00;;;;;;;1.23;0.98;;;22.50;62.50;;;;;;5038220;28;20037;-24
2022/07/03 06:06:26;;;;;;;1.35;0.90;;;22.50;63.20;;;;;;5057842;28;20048;-24
2022/07/03 06:08:52;;;;;;;2.08;0.75;;;22.50;62.40;;;;;;5051611;28;20043;-22
2022/07/03 06:11:17;;;;;;;1.83;0.70;;;22.50;62.40;;;;;;5060583;28;20527;-23
2022/07/03 06:13:43;;;;;;;1.50;0.98;;;22.50;62.40;;;;;;5059356;28;20057;-26
2022/07/03 06:16:08;;;;;;;2.45;1.27;;;22.40;62.50;;;;;;5057024;28;20033;-25
2022/07/03 06:18:34;;;;;;;1.65;0.80;;;22.40;62.40;;;;;;5055516;28;20053;-23
2022/07/03 06:20:59;;;;;;;2.22;0.95;;;22.50;62.40;;;;;;5062775;28;20119;-24
2022/07/03 06:23:25;;;;;;;0.73;0.60;;;22.40;62.40;;;;;;5050213;28;20053;-24
2022/07/03 06:25:51;;;;;;;1.80;0.70;;;22.40;62.30;;;;;;5053250;28;20039;-24
2022/07/03 06:28:16;;;;;;;0.77;0.60;;;22.40;62.20;;;;;;5046454;28;20406;-21
2022/07/03 06:30:42;;;;;;;2.00;0.85;;;22.40;62.40;;;;;;5048155;28;20045;-24
2022/07/03 06:33:07;;;;;;;0.93;0.65;;;22.40;62.20;;;;;;5062150;28;20053;-23
2022/07/03 06:35:33;;;;;;;1.05;0.65;;;22.40;62.40;;;;;;5050600;28;20052;-23
2022/07/03 06:38:05;;;;;;;0.80;0.68;;;22.40;62.30;;;;;;5067350;28;20113;-23
2022/07/03 06:40:30;;;;;;;0.90;0.57;;;22.40;62.30;;;;;;5058187;28;20036;-24
2022/07/03 06:42:56;;;;;;;0.95;0.75;;;22.40;62.30;;;;;;5049357;28;20033;-24
2022/07/03 06:45:22;;;;;;;1.23;0.65;;;22.50;62.10;;;;;;5051648;28;20033;-22
2022/07/03 06:47:47;;;;;;;0.77;0.50;;;22.40;62.80;;;;;;5059710;28;20045;-23
2022/07/03 06:50:13;;;;;;;1.00;0.60;;;22.40;62.10;;;;;;5034606;28;20064;-25
2022/07/03 06:52:38;;;;;;;1.42;0.80;;;22.40;62.00;;;;;;5064334;28;20048;-26
2022/07/03 06:55:05;;;;;;;0.68;0.57;;;22.50;62.10;;;;;;5049319;28;20472;-23
2022/07/03 06:57:30;;;;;;;2.00;0.68;;;22.40;62.10;;;;;;5052740;28;20037;-28
2022/07/03 06:59:56;;;;;;;0.95;0.85;;;22.50;61.80;;;;;;5059327;28;20048;-24
2022/07/03 07:02:22;;;;;;;0.90;0.88;;;22.40;61.60;;;;;;5062720;28;20056;-23
2022/07/03 07:04:47;;;;;;;0.70;0.68;;;22.30;61.70;;;;;;5052435;28;20526;-21
2022/07/03 07:07:13;;;;;;;0.75;0.50;;;22.40;62.40;;;;;;5052166;28;20056;-27
2022/07/03 07:09:38;;;;;;;1.48;0.70;;;22.40;61.30;;;;;;5038567;28;20077;-26
2022/07/03 07:12:04;;;;;;;0.98;0.50;;;22.40;61.60;;;;;;5052208;28;20044;-26
2022/07/03 07:14:30;;;;;;;1.08;0.70;;;22.50;61.70;;;;;;5057518;28;20083;-26
2022/07/03 07:16:56;;;;;;;1.10;0.47;;;22.50;61.70;;;;;;5055011;28;20040;-21
2022/07/03 07:19:21;;;;;;;0.70;0.50;;;22.40;61.60;;;;;;5059592;28;20037;-24
2022/07/03 07:21:47;;;;;;;2.03;0.90;;;22.40;61.60;;;;;;5049763;28;20087;-22
2022/07/03 07:24:13;;;;;;;0.57;0.52;;;22.40;61.60;;;;;;5060804;28;20041;-20
2022/07/03 07:26:38;;;;;;;1.38;0.60;;;22.40;62.00;;;;;;5044756;28;20048;-23
2022/07/03 07:29:04;;;;;;;0.70;0.60;;;22.40;61.70;;;;;;5064298;28;20032;-22
2022/07/03 07:31:29;;;;;;;1.02;0.50;;;22.40;61.90;;;;;;5058759;28;20516;-26
2022/07/03 07:33:55;;;;;;;0.80;0.55;;;22.50;62.30;;;;;;5049746;28;20041;-26
2022/07/03 07:36:20;;;;;;;0.60;0.50;;;22.50;61.70;;;;;;5043018;28;20049;-21
2022/07/03 07:38:46;;;;;;;1.38;0.45;;;22.50;61.30;;;;;;5051184;28;20055;-24
2022/07/03 07:41:11;;;;;;;1.00;0.50;;;22.70;61.60;;;;;;5056551;28;20436;-22
2022/07/03 07:43:37;;;;;;;0.68;0.50;;;22.70;60.60;;;;;;5046858;28;20044;-23
2022/07/03 07:46:02;;;;;;;0.60;0.50;;;22.70;60.40;;;;;;5061282;28;20092;-24
2022/07/03 07:48:28;;;;;;;0.90;0.75;;;22.70;60.60;;;;;;5055175;28;20048;-20
2022/07/03 07:50:54;;;;;;;0.45;0.30;;;22.70;60.50;;;;;;5063859;28;20036;-24
2022/07/03 07:53:19;;;;;;;0.65;0.45;;;22.70;61.40;;;;;;5063233;28;20068;-27
2022/07/03 07:55:45;;;;;;;0.70;0.63;;;22.70;60.40;;;;;;5050680;28;20131;-24
2022/07/03 07:58:10;;;;;;;0.60;0.50;;;22.70;60.50;;;;;;5047907;28;20521;-26
2022/07/03 08:00:36;;;;;;;1.65;0.50;;;22.80;60.40;;;;;;5041670;28;20629;-25
2022/07/03 08:05:45;;;;;;;0.30;0.30;;;22.80;60.30;;;;;;5063259;28;20059;-24
2022/07/03 08:08:15;;;;;;;0.77;0.50;;;22.80;60.50;;;;;;5044516;28;20037;-22
2022/07/03 08:10:50;;;;;;;0.60;0.60;;;22.80;60.50;;;;;;5042071;28;20060;-24
2022/07/03 08:13:17;;;;;;;0.80;0.65;;;22.80;60.30;;;;;;5043570;28;20044;-25
2022/07/03 08:15:42;;;;;;;0.90;0.35;;;22.80;60.50;;;;;;5042020;28;20139;-20
2022/07/03 08:18:08;;;;;;;0.85;0.40;;;22.80;60.60;;;;;;5059162;28;20454;-23
2022/07/03 08:20:34;;;;;;;0.82;0.60;;;22.80;60.80;;;;;;5053448;28;20047;-26
2022/07/03 08:23:00;;;;;;;0.82;0.50;;;22.70;60.70;;;;;;5051443;28;20068;-29
2022/07/03 08:25:25;;;;;;;0.52;0.50;;;22.80;60.90;;;;;;5061411;28;20142;-21
2022/07/03 08:27:51;;;;;;;0.43;0.40;;;22.80;60.80;;;;;;5056714;28;20044;-25
2022/07/03 08:30:17;;;;;;;0.57;0.35;;;22.80;60.70;;;;;;5056984;28;20445;-23
2022/07/03 08:32:49;;;;;;;0.40;0.40;;;22.80;60.70;;;;;;5046267;28;20056;-25
2022/07/03 08:35:15;;;;;;;0.55;0.35;;;22.80;60.50;;;;;;5059148;28;20045;-24
2022/07/03 08:37:40;;;;;;;0.52;0.52;;;22.90;60.60;;;;;;5053145;28;20395;-23
2022/07/03 08:40:09;;;;;;;1.10;0.43;;;22.90;60.40;;;;;;5054990;28;20047;-25
2022/07/03 08:42:39;;;;;;;1.02;0.50;;;22.90;60.30;;;;;;5050132;28;20132;-23
2022/07/03 08:45:06;;;;;;;0.70;0.35;;;22.90;60.30;;;;;;5060529;28;20045;-21
2022/07/03 08:47:32;;;;;;;0.52;0.32;;;22.90;60.50;;;;;;5055852;28;20041;-26
2022/07/03 08:49:57;;;;;;;0.80;0.35;;;22.90;60.30;;;;;;5047268;28;20045;-24
2022/07/03 08:52:23;;;;;;;0.85;0.40;;;22.90;60.30;;;;;;5045483;28;20044;-23
2022/07/03 08:54:50;;;;;;;0.77;0.50;;;23.00;60.30;;;;;;5055291;28;20132;-22
2022/07/03 08:57:15;;;;;;;0.50;0.40;;;23.00;60.40;;;;;;5049959;28;20515;-22
2022/07/03 08:59:41;;;;;;;0.30;0.30;;;22.90;60.30;;;;;;5053322;28;20152;-23
2022/07/03 09:02:06;;;;;;;0.50;0.45;;;23.00;60.50;;;;;;5036794;28;20545;-23
2022/07/03 09:04:33;;;;;;;0.75;0.60;;;23.00;60.80;;;;;;5055971;28;20826;-23
2022/07/03 09:06:59;;;;;;;0.30;0.30;;;23.00;60.40;;;;;;5047921;28;20098;-22
2022/07/03 09:09:24;;;;;;;1.10;0.50;;;23.00;60.40;;;;;;5047605;28;20049;-23
2022/07/03 09:11:50;;;;;;;0.55;0.35;;;23.10;60.50;;;;;;5055240;28;20048;-24
2022/07/03 09:14:16;;;;;;;0.52;0.35;;;23.00;60.50;;;;;;5056484;28;20047;-23
2022/07/03 09:16:42;;;;;;;1.95;0.43;;;23.00;60.50;;;;;;5055443;28;20123;-25
2022/07/03 09:19:07;;;;;;;1.60;0.20;;;23.00;60.50;;;;;;5027089;28;20051;-22
2022/07/03 09:21:40;;;;;;;0.98;0.30;;;23.00;60.50;;;;;;5062309;28;20060;-26
2022/07/03 09:24:07;;;;;;;0.70;0.40;;;23.00;60.40;;;;;;5061798;28;20037;-23
2022/07/03 09:26:32;;;;;;;0.50;0.40;;;23.00;60.50;;;;;;5055037;28;20494;-24
2022/07/03 09:28:58;;;;;;;0.40;0.40;;;23.10;60.40;;;;;;5063499;28;20051;-24
2022/07/03 09:31:25;;;;;;;0.60;0.50;;;23.10;60.40;;;;;;5057747;28;20060;-23
2022/07/03 09:33:56;;;;;;;1.23;0.55;;;23.10;60.10;;;;;;5066995;28;20057;-23
2022/07/03 09:36:45;;;;;;;1.05;0.73;;;23.10;60.20;;;;;;5066924;28;20040;-24
2022/07/03 09:39:20;;;;;;;0.50;0.30;;;23.10;60.10;;;;;;5055198;28;20045;-23
2022/07/03 09:42:14;;;;;;;1.05;0.50;;;23.10;60.10;;;;;;5040110;28;20044;-24
2022/07/03 09:44:46;;;;;;;0.50;0.38;;;23.10;60.00;;;;;;5042353;28;20037;-24
2022/07/03 09:47:15;;;;;;;0.50;0.50;;;23.10;60.10;;;;;;5058863;28;20584;-24
2022/07/03 09:49:54;;;;;;;0.80;0.45;;;23.10;60.10;;;;;;5054650;28;20084;-26
2022/07/03 09:52:34;;;;;;;0.40;0.35;;;23.20;60.10;;;;;;5060041;28;20498;-24
2022/07/03 09:55:20;;;;;;;0.30;0.30;;;23.10;59.90;;;;;;5058806;28;20057;-22
2022/07/03 09:57:49;;;;;;;0.40;0.30;;;23.20;60.00;;;;;;5050227;28;20505;-25
2022/07/03 10:00:21;;;;;;;0.57;0.28;;;23.20;59.90;;;;;;5051514;28;20029;-21
2022/07/03 10:03:06;;;;;;;0.70;0.30;;;23.20;60.00;;;;;;5059071;28;20045;-24
2022/07/03 10:05:32;;;;;;;0.40;0.20;;;23.20;59.80;;;;;;5037012;28;20112;-25
2022/07/03 10:08:11;;;;;;;0.60;0.30;;;23.10;60.10;;;;;;5041874;28;20045;-21
2022/07/03 10:10:45;;;;;;;0.30;0.20;;;23.20;60.10;;;;;;5061833;28;20069;-27
2022/07/03 10:13:10;;;;;;;0.43;0.20;;;23.10;60.10;;;;;;5055957;28;20438;-24
2022/07/03 10:15:37;;;;;;;0.22;0.22;;;23.20;60.20;;;;;;5039044;28;20076;-23
2022/07/03 10:18:04;;;;;;;1.35;0.55;;;23.20;60.30;;;;;;5041078;28;20414;-21
2022/07/03 10:20:35;;;;;;;0.32;0.32;;;23.20;60.10;;;;;;5037933;28;20478;-22
2022/07/03 10:23:00;;;;;;;0.20;0.20;;;23.20;60.00;;;;;;5057417;28;20036;-22
2022/07/03 10:25:26;;;;;;;1.15;0.22;;;23.20;60.20;;;;;;5059422;28;20106;-23
2022/07/03 10:27:52;;;;;;;0.20;0.20;;;23.20;60.10;;;;;;5053902;28;20052;-23
2022/07/03 10:30:19;;;;;;;0.47;0.20;;;23.20;60.00;;;;;;5049129;28;20037;-23
2022/07/03 10:32:47;;;;;;;0.32;0.32;;;23.20;59.80;;;;;;5062986;28;20402;-22
2022/07/03 10:35:26;;;;;;;0.50;0.30;;;23.30;59.80;;;;;;5049182;28;20081;-24
2022/07/03 10:38:03;;;;;;;0.22;0.22;;;23.20;59.70;;;;;;5053005;28;20508;-24
2022/07/03 10:46:23;;;;;;;0.40;0.30;;;23.20;59.50;;;;;;5052568;28;20531;-23
2022/07/03 10:49:00;;;;;;;0.52;0.15;;;23.20;59.50;;;;;;5046432;28;20506;-23
2022/07/03 10:51:28;;;;;;;0.50;0.32;;;23.20;59.50;;;;;;5056279;28;20056;-26
2022/07/03 10:54:22;;;;;;;0.43;0.20;;;23.20;59.40;;;;;;5031163;28;20416;-24
2022/07/03 10:57:13;;;;;;;0.35;0.30;;;23.20;59.30;;;;;;5057653;28;20048;-23
2022/07/03 10:59:45;;;;;;;0.20;0.20;;;23.20;59.30;;;;;;5047946;28;20429;-22
2022/07/03 11:02:39;;;;;;;1.02;0.32;;;23.20;59.20;;;;;;5049115;28;20423;-23
2022/07/03 11:05:19;;;;;;;0.20;0.20;;;23.20;59.40;;;;;;5054065;28;20044;-25
2022/07/03 11:07:51;;;;;;;0.90;0.50;;;23.10;60.10;;;;;;5043831;28;20044;-21
2022/07/03 11:10:17;;;;;;;0.40;0.20;;;23.20;59.50;;;;;;5050861;28;20041;-22
2022/07/03 11:13:07;;;;;;;0.30;0.20;;;23.10;59.40;;;;;;5039734;28;20051;-24
2022/07/03 11:15:50;;;;;;;0.22;0.20;;;23.20;59.40;;;;;;5052727;28;20040;-23
2022/07/03 11:18:31;;;;;;;0.85;0.30;;;23.20;59.50;;;;;;5056758;28;20037;-21
2022/07/03 11:21:06;;;;;;;0.32;0.20;;;23.30;59.50;;;;;;5060055;28;20120;-25
2022/07/03 11:23:43;;;;;;;0.10;0.10;;;23.20;59.30;;;;;;5060867;28;20132;-23
2022/07/03 11:26:08;;;;;;;0.32;0.20;;;23.20;59.60;;;;;;5058820;28;20084;-23
2022/07/03 11:28:34;;;;;;;1.20;0.22;;;23.20;59.50;;;;;;5059092;28;20091;-22
2022/07/03 11:31:10;;;;;;;0.20;0.20;;;23.20;59.60;;;;;;5055999;28;20446;-22
2022/07/03 11:33:54;;;;;;;1.30;0.35;;;23.20;59.50;;;;;;5052030;28;20553;-23
2022/07/03 11:36:29;;;;;;;1.90;0.38;;;23.20;59.40;;;;;;5050943;28;20044;-24
2022/07/03 11:38:57;;;;;;;1.33;0.50;;;23.20;59.30;;;;;;5061310;28;20127;-21
2022/07/03 11:41:23;;;;;;;0.60;0.35;;;23.20;59.30;;;;;;5045187;28;20042;-23
2022/07/03 11:43:50;;;;;;;0.65;0.60;;;23.20;59.10;;;;;;5055072;28;20102;-25
2022/07/03 11:46:20;;;;;;;0.65;0.40;;;23.20;59.10;;;;;;5051790;28;20053;-27
2022/07/03 11:48:46;;;;;;;1.13;0.32;;;23.20;59.10;;;;;;5053481;28;20049;-24
2022/07/03 11:51:11;;;;;;;3.10;0.70;;;23.20;59.10;;;;;;5060299;28;20104;-22
2022/07/03 11:53:37;;;;;;;1.58;0.90;;;23.20;59.30;;;;;;5049683;28;20441;-23
2022/07/03 11:56:10;;;;;;;1.00;0.43;;;23.20;59.00;;;;;;5057369;28;20099;-24
2022/07/03 11:58:50;;;;;;;2.05;0.60;;;23.20;59.10;;;;;;5048165;28;20485;-25
2022/07/03 12:01:22;;;;;;;0.60;0.32;;;23.30;59.20;;;;;;5052255;28;20037;-28
2022/07/03 12:04:02;;;;;;;1.35;0.73;;;23.30;59.00;;;;;;5037637;28;20157;-23
2022/07/03 12:06:34;;;;;;;0.90;0.50;;;23.20;59.00;;;;;;5037800;28;20041;-24
2022/07/03 12:08:59;;;;;;;0.88;0.40;;;23.30;59.80;;;;;;5038125;28;20039;-23
2022/07/03 12:11:25;;;;;;;1.10;0.40;;;23.30;59.40;;;;;;5039555;28;20520;-21
2022/07/03 12:13:52;;;;;;;3.25;0.70;;;23.30;58.80;;;;;;5040136;28;20073;-26
2022/07/03 12:16:18;;;;;;;1.75;0.28;;;23.20;58.40;;;;;;5040531;28;20044;-22
2022/07/03 12:18:48;;;;;;;2.67;0.65;;;23.20;58.20;;;;;;5060817;28;20131;-21
2022/07/03 12:21:14;;;;;;;3.05;0.85;;;23.30;58.70;;;;;;5042207;28;20044;-23
2022/07/03 12:23:47;;;;;;;1.25;0.50;;;23.30;58.90;;;;;;5052178;28;20083;-23
2022/07/03 12:26:13;;;;;;;0.77;0.33;;;23.30;58.50;;;;;;5052972;28;20504;-20
2022/07/03 12:28:39;;;;;;;0.52;0.38;;;23.30;56.90;;;;;;5052009;28;20714;-24
2022/07/03 12:31:05;;;;;;;0.20;0.20;;;23.30;57.00;;;;;;5039764;28;20162;-23
2022/07/03 12:33:35;;;;;;;0.55;0.40;;;23.20;56.70;;;;;;5045689;28;20049;-26
2022/07/03 12:36:07;;;;;;;0.50;0.20;;;23.30;56.30;;;;;;5043933;28;20547;-25
2022/07/03 12:38:33;;;;;;;0.93;0.30;;;23.20;55.60;;;;;;5065104;28;20040;-25
2022/07/03 12:41:03;;;;;;;1.58;0.30;;;23.30;55.90;;;;;;5063063;28;20509;-23
2022/07/03 12:43:39;;;;;;;0.40;0.30;;;23.30;55.90;;;;;;5063981;28;20049;-25
2022/07/03 12:46:24;;;;;;;0.35;0.30;;;23.30;55.20;;;;;;5055932;28;20131;-21
2022/07/03 12:48:54;;;;;;;0.43;0.43;;;23.30;55.10;;;;;;5053643;28;20041;-24
2022/07/03 12:51:42;;;;;;;0.57;0.15;;;23.30;54.90;;;;;;5050152;28;21935;-22
2022/07/03 12:54:09;;;;;;;0.50;0.30;;;23.30;54.70;;;;;;5057287;28;20482;-22
2022/07/03 12:56:34;;;;;;;1.20;0.28;;;23.30;53.80;;;;;;5055146;28;20105;-25
2022/07/03 12:59:18;;;;;;;0.40;0.10;;;23.30;54.30;;;;;;5048803;28;20052;-25
2022/07/03 13:01:45;;;;;;;0.10;0.10;;;23.30;53.60;;;;;;5045741;28;20135;-27
2022/07/03 13:04:17;;;;;;;0.30;0.30;;;23.30;53.70;;;;;;5049850;28;20094;-23
2022/07/03 13:06:45;;;;;;;0.45;0.20;;;23.30;55.50;;;;;;5058440;28;20064;-26